Tiempo atmosférico en la estación meteorológica de Aranda De Duero, Burgos (790 m.)



Fecha
DESCASC
Temp. máxima en grados centígrados (hora)
DESCASC
Temp. mínima en grados centígrados (hora)
DESCASC
Temp. media en grados centígrados
DESCASC
Racha de viento máxima en m/sg (hora)
DESCASC
Velocidad máxima media en intervalos de 10 minutos(hora)
DESCASC
Precipitaciones diarias en mm
DESCASC
Precipitaciones de 00:00 a 06:00 en mm
DESCASC
Precipitaciones de 06:00 a 12:00 en mm
DESCASC
Precipitaciones de 12:00 a 18:00 en mm
DESCASC
Precipitaciones de 18:00 a 24:00 en mm
DESCASC
22-01-2020 7.7 (14:20) 0.7 (22:00) 4.2 10.28 (15:10) 5.83 (15:10) 0 0 0 0 0
21-01-2020 7.5 (21:20) -1 (02:40) 3.3 13.89 (22:20) 6.39 (23:10) 1.2 0 0 1 0.2
20-01-2020 3.8 (15:30) -1.6 (07:20) 1.1 11.39 (01:40) 5.28 (10:50) 0 0 0 0 0
19-01-2020 5.7 (14:40) 1 (00:00) 3.3 16.67 (15:10) 6.94 (15:30) 0 0 0 0 0
18-01-2020 10.9 (17:20) -0.7 (-00:0) 5.1 15.56 (19:10) 5.83 (18:00) 5 0 0 0.4 4.6
17-01-2020 10.3 (13:50) -0.7 (-00:0) 4.8 13.06 (13:10) 5.83 (07:40) 0.2 0.2 0 0 0
16-01-2020 14.3 (15:00) 0.2 (00:00) 7.3 12.5 (15:20) 6.67 (15:40) 0 0 0 0 0
15-01-2020 10.6 (16:30) 0.3 (00:00) 5.5 9.44 (16:50) 5.56 (16:50) 0 0 0 0 0
14-01-2020 9.1 (16:50) -3.7 (-00:0) 2.7 8.89 (16:50) 4.72 (16:50) 0 0 0 0 0
13-01-2020 7.4 (16:40) -6.2 (-00:0) 0.6 7.22 (16:10) 3.06 (16:00) 0 0 0 0 0
12-01-2020 4.5 (17:30) -5.8 (-00:0) -0.7 3.06 (05:00) 1.67 (04:20) 0 0 0 0 0
11-01-2020 -0.1 (15:40) -5.5 (-00:0) -2.8 3.33 (07:10) 1.94 (07:10) 0 0 0 0 0
10-01-2020 7.9 (15:50) -2.2 (-00:0) 2.9 10 (14:50) 4.44 (12:10) 0 0 0 0 0
09-01-2020 11.6 (16:50) -2.9 (-00:0) 4.4 9.72 (15:20) 4.17 (15:10) 0 0 0 0 0
08-01-2020 9.6 (16:30) -4.3 (-00:0) 2.7 3.89 (13:10) 1.94 (13:50) 0 0 0 0 0
07-01-2020 3.3 (17:20) -4 (-00:0) -0.4 3.33 (14:30) 1.94 (14:30) 0 0 0 0 0
06-01-2020 3.8 (16:50) -3.5 (-00:0) 0.1 3.61 (12:30) 1.94 (01:20) 0 0 0 0 0
05-01-2020 1.1 (15:30) -3.2 (-00:0) -1.1 3.33 (16:20) 1.39 (16:40) 0 0 0 0 0
04-01-2020 8.7 (16:10) -2.2 (-00:0) 3.2 3.61 (16:00) 1.67 (03:50) 0 0 0 0 0
03-01-2020 6.2 (16:00) -3.7 (-00:0) 1.2 3.33 (16:40) 1.67 (09:30) 0 0 0 0 0
02-01-2020 9.2 (16:00) -6 (-00:0) 1.6 3.33 (12:10) 1.94 (01:30) 0 0 0 0 0
01-01-2020 10.2 (16:40) -6 (-00:0) 2.1 2.5 (11:10) 1.39 (01:50) 0 0 0 0 0
31-12-2019 9.5 (16:40) -5.1 (-00:0) 2.2 3.06 (13:20) 1.67 (13:20) 0 0 0 0 0
30-12-2019 10.7 (16:30) -3.6 (-00:0) 3.5 3.33 (15:10) 1.67 (14:40) 0 0 0 0 0
29-12-2019 9.8 (16:30) -4.2 (-00:0) 2.8 2.5 (06:30) 1.67 (06:30) 0 0 0 0 0
28-12-2019 7.9 (17:10) -2.5 (-00:0) 2.7 3.89 (12:40) 2.22 (12:40) 0 0 0 0 0
27-12-2019 5.7 (15:50) -1.9 (-00:0) 1.9 5.28 (11:20) 3.06 (11:20) 0 0 0 0 0
26-12-2019 10.5 (14:00) -1 (-00:0) 4.8 4.17 (13:40) 1.67 (13:10) 0 0 0 0 0
25-12-2019 13.8 (16:50) 0.8 (00:00) 7.3 5 (11:30) 1.94 (11:30) 0 0 0 0 0

Gráficas

Temp. máximas Temp. mínimas Temp. medias Precipitaciones Rachas de viento máximas Velocidades máximas media en intervalos de 10 minutos

Datos horarios

Fecha y hora oficial Temperatura (ºC) Velocidad del viento (km/h) Dirección del viento Racha (km/h) Dirección de racha Precipitación (mm) Presión (hPa) Tendencia (hPa) Humedad (%)
2020-01-23 23:00:00 2.4 7 Este 14 Este 0 928 1.6 80
2020-01-23 22:00:00 1.4 5 Este 8 Este 0 927.5 1.5 82
2020-01-23 21:00:00 2.3 3 Este 11 Este 0 927.2 1.6 77
2020-01-23 20:00:00 2.6 2 Este 5 Este 0 926.4 0.9 77
2020-01-23 19:00:00 4.9 2 Sudeste 8 Este 0 926 0.8 72
2020-01-23 18:00:00 7.1 3 Nordeste 7 Nordeste 0 925.6 -0.2 63
2020-01-23 17:00:00 8.7 0 Calma 12 Sudeste 0 925.5 -1 55
2020-01-23 16:00:00 9 5 Este 14 Este 0 925.2 -1.9 54
2020-01-23 15:00:00 8.5 4 Sudeste 16 Sudeste 0 925.8 -1.8 57
2020-01-23 14:00:00 7.8 8 Este 23 Sudeste 0 926.5 -1 62
2020-01-23 13:00:00 5.8 10 Este 25 Este 0 927.1 -0.4 69
2020-01-23 12:00:00 4.4 17 Este 37 Sudeste 0 927.6 0.7 74
2020-01-23 11:00:00 3.5 14 Este 33 Este 0 927.5 0.7 78
2020-01-23 10:00:00 3 14 Este 34 Este 0 927.5 1.1 80
2020-01-23 09:00:00 2.8 15 Este 31 Este 0 926.9 0.8 79
2020-01-23 08:00:00 2.4 8 Este 19 Este 0 926.8 0.7 81
2020-01-23 07:00:00 0.4 4 Este 11 Nordeste 0 926.4 -0.1 85
2020-01-23 06:00:00 1 8 Sudeste 18 Este 0 926.1 -0.5 82
2020-01-23 05:00:00 2.1 8 Este 26 Sudeste 0 926.1 -1 82
2020-01-23 04:00:00 2.5 11 Este 23 Este 0 926.5 -0.9 81
2020-01-23 03:00:00 2.5 4 Este 22 Sudeste 0 926.6 -0.7 79
2020-01-23 02:00:00 2.9 10 Este 22 Este 0 927.1 -0.2 78
2020-01-23 01:00:00 2.8 9 Este 23 Sudeste 0 927.4 0.2 80
2020-01-23 00:00:00 3.1 13 Este 23 Este 0 927.3 0.1 79
2020-01-22 23:00:00 3.8 11 Este 30 Este 0 927.3 0.6 76
2020-01-22 22:00:00 0.7 3 Sudoeste 10 Nordeste 0 927.2 0.7 80
2020-01-22 21:00:00 1.5 4 Nordeste 7 Nordeste 0 927.2 0.9 80
2020-01-22 20:00:00 3.7 5 Sudeste 13 Sudeste 0 926.7 0.3 73
2020-01-22 19:00:00 4.5 5 Sudeste 18 Este 0 926.5 0 71
2020-01-22 18:00:00 6.1 4 Sudeste 29 Sudeste 0 926.3 -0.7 68
2020-01-22 17:00:00 7 16 Sudeste 33 Este 0 926.4 -1.4 64
2020-01-22 16:00:00 7.3 17 Este 37 Este 0 926.5 -2.2 63
2020-01-22 15:00:00 7.4 20 Este 37 Este 0 927 -2.4 60
2020-01-22 14:00:00 7.5 14 Este 28 Este 0 927.8 -1.5 65
2020-01-22 13:00:00 7.1 14 Este 27 Sudeste 0 928.7 -0.6 66
2020-01-22 12:00:00 5.8 14 Este 32 Este 0 929.4 0.4 70
2020-01-22 11:00:00 5 14 Este 28 Este 0 929.3 0.5 74
2020-01-22 10:00:00 3.8 8 Este 18 Este 0 929.3 1 78
2020-01-22 09:00:00 3.3 7 Este 16 Este 0 929 0.8 77
2020-01-22 08:00:00 2.8 6 Este 13 Este 0 928.8 0.1 79
2020-01-22 07:00:00 2.8 6 Este 13 Este 0 928.3 -0.6 79
2020-01-22 06:00:00 2.8 6 Este 21 Sudeste 0 928.2 -0.4 79
2020-01-22 05:00:00 3.4 11 Este 24 Este 0 928.7 -0.1 77
2020-01-22 04:00:00 3.7 9 Este 21 Este 0 928.9 -0.1 80
2020-01-22 03:00:00 4 9 Este 23 Este 0 928.6 -0.5 80
2020-01-22 02:00:00 5 14 Este 33 Este 0 928.8 0.1 74
2020-01-22 01:00:00 6 14 Este 33 Este 0 929 0.7 70
2020-01-22 00:00:00 6.4 17 Este 50 Este 0 929.1 1 70
2020-01-21 23:00:00 7.1 17 Este 50 Este 0 928.7 0.8 64
2020-01-21 22:00:00 7.2 14 Este 35 Este 0 928.3 0.3 64
2020-01-21 21:00:00 4.4 6 Nordeste 18 Este 0 928.1 0.1 76
2020-01-21 20:00:00 3.2 5 Nordeste 14 Nordeste 0 927.9 -0.2 72
2020-01-21 19:00:00 3.1 3 Norte 24 Nordeste 0.2 928 -0.4 72
2020-01-21 18:00:00 3.5 8 Nordeste 30 Norte 0 928 -0.6 70
2020-01-21 17:00:00 4 6 Nordeste 22 Norte 0.8 928.1 -0.9 76
2020-01-21 16:00:00 4.5 8 Nordeste 21 Nordeste 0.2 928.4 -1.3 75
2020-01-21 15:00:00 4.7 3 Norte 10 Sudeste 0 928.6 -2 76
2020-01-21 14:00:00 5.6 5 Este 20 Este 0 929 -2.2 63
2020-01-21 13:00:00 4.6 8 Nordeste 19 Nordeste 0 929.7 -2 64
2020-01-21 12:00:00 2.6 3 Norte 16 Nordeste 0 930.6 -0.9 71
2020-01-21 11:00:00 1.4 2 Norte 14 Nordeste 0 931.2 -0.5 79
2020-01-21 10:00:00 0.6 8 Nordeste 21 Este 0 931.7 0 77
2020-01-21 09:00:00 0.4 4 Sudoeste 9 Norte 0 931.5 -0.6 75
2020-01-21 08:00:00 0.4 2 Este 7 Este 0 931.7 -0.9 72
2020-01-21 07:00:00 1.2 3 Norte 11 Este 0 931.7 -1.7 68
2020-01-21 06:00:00 1.4 3 Nordeste 8 Nordeste 0 932.1 -1.7 64
2020-01-21 05:00:00 0.9 4 Norte 10 Nordeste 0 932.6 -1.7 63
2020-01-21 04:00:00 0.6 4 Nordeste 14 Nordeste 0 933.4 -1.2 65
2020-01-21 03:00:00 -0.4 4 Norte 14 Norte 0 933.8 -0.7 67
2020-01-21 02:00:00 -0.3 2 Este 17 Norte 0 934.3 -0.1 64
2020-01-21 01:00:00 -0.4 4 Norte 14 Norte 0 934.6 0.4 62
2020-01-21 00:00:00 -0.6 2 Norte 13 Norte 0 934.5 0.3 62
2020-01-20 23:00:00 0.2 5 Norte 15 Nordeste 0 934.4 0.4 59
2020-01-20 22:00:00 0.4 3 Noroeste 13 Nordeste 0 934.2 0.5 59
2020-01-20 21:00:00 0.9 5 Norte 11 Norte 0 934.2 1 56
2020-01-20 20:00:00 0.9 3 Nordeste 22 Este 0 934 1 56
2020-01-20 19:00:00 0.9 8 Nordeste 23 Norte 0 933.7 0.6 55
2020-01-20 18:00:00 1.4 7 Nordeste 35 Norte 0 933.2 -0.1 53
2020-01-20 17:00:00 1.6 15 Norte 35 Norte 0 933 -0.9 51
2020-01-20 16:00:00 3.1 13 Nordeste 30 Nordeste 0 933.1 -1.3 41
2020-01-20 15:00:00 3.3 12 Nordeste 31 Este 0 933.3 -1.6 38
2020-01-20 14:00:00 2.7 11 Nordeste 32 Nordeste 0 933.9 -1.2 39
2020-01-20 13:00:00 3.2 12 Nordeste 33 Este 0 934.4 -0.3 38
2020-01-20 12:00:00 1.8 15 Nordeste 36 Nordeste 0 934.9 0.6 40
2020-01-20 11:00:00 1.5 18 Nordeste 39 Este 0 935.1 1 39
2020-01-20 10:00:00 0.5 10 Nordeste 28 Nordeste 0 934.7 0.7 43
2020-01-20 09:00:00 -0.7 9 Nordeste 36 Norte 0 934.3 -0.2 49
2020-01-20 08:00:00 -1.4 8 Norte 23 Norte 0 934.1 -0.7 53
2020-01-20 07:00:00 -1.4 6 Norte 28 Norte 0 934 -1.4 56
2020-01-20 06:00:00 -0.7 11 Norte 31 Norte 0 934.5 -1.4 53
2020-01-20 05:00:00 -0.6 14 Norte 32 Norte 0 934.8 -1.7 53
2020-01-20 04:00:00 -0.5 12 Norte 37 Nordeste 0 935.4 -0.9 53
2020-01-20 03:00:00 -0.1 15 Nordeste 39 Norte 0 935.9 -0.6 51
2020-01-20 02:00:00 0.3 17 Nordeste 41 Norte 0 936.5 0.4 50
2020-01-20 01:00:00 0.6 15 Nordeste 34 Nordeste 0 936.3 0.5 48
2020-01-20 00:00:00 1.2 18 Nordeste 51 Este 0 936.5 0.7 46
2020-01-19 23:00:00 1.4 19 Nordeste 51 Nordeste 0 936.1 0.6 44
2020-01-19 22:00:00 1.4 15 Nordeste 45 Norte 0 935.8 0.8 48
2020-01-19 21:00:00 1.4 19 Nordeste 51 Nordeste 0 935.8 0.8 48
2020-01-19 20:00:00 1.3 18 Norte 43 Nordeste 0 935.5 0.6 52
2020-01-19 19:00:00 1.6 16 Norte 47 Norte 0 935 0.9 50
2020-01-19 18:00:00 3 22 Norte 52 Norte 0 935 1.1 43
2020-01-19 17:00:00 4.1 18 Norte 47 Norte 0 934.9 0.9 50
2020-01-19 16:00:00 5.1 22 Nordeste 60 Nordeste 0 934.1 0.4 40
2020-01-19 15:00:00 5.5 24 Norte 56 Norte 0 933.9 0.4 45
2020-01-19 14:00:00 5.1 17 Norte 44 Norte 0 934 1 46
2020-01-19 13:00:00 4.3 20 Norte 52 Norte 0 933.7 1.3 55
2020-01-19 12:00:00 3.9 19 Norte 50 Norte 0 933.5 2.6 59
2020-01-19 11:00:00 3.5 17 Norte 35 Nordeste 0 933 3.1 62
2020-01-19 10:00:00 3.9 13 Norte 39 Norte 0 932.4 2.9 64
2020-01-19 09:00:00 3.4 17 Norte 48 Norte 0 930.9 1.5 72
2020-01-19 08:00:00 4.1 21 Norte 45 Norte 0 929.9 0.4 74
2020-01-19 07:00:00 3.5 11 Noroeste 30 Noroeste 0 929.5 0 80
2020-01-19 06:00:00 2.2 4 Oeste 13 Noroeste 0 929.4 -0.1 86
2020-01-19 05:00:00 2 3 Oeste 9 Sudoeste 0 929.5 0 86
2020-01-19 04:00:00 2.1 2 Oeste 6 Oeste 0 929.5 0.2 85
2020-01-19 03:00:00 2.7 3 Sudoeste 8 Oeste 0 929.5 0.4 85
2020-01-19 02:00:00 2.7 3 Sudoeste 8 Oeste 0 929.5 0.8 85
2020-01-19 01:00:00 2.2 4 Oeste 8 Oeste 0 929.3 0.6 83
2020-01-19 00:00:00 3.5 2 Oeste 13 Oeste 0 929.1 0.5 81
2020-01-18 23:00:00 4.1 3 Oeste 18 Oeste 0 928.7 0.4 79
2020-01-18 22:00:00 5.3 8 Oeste 26 Oeste 0.8 928.7 2 80
2020-01-18 21:00:00 5.8 9 Oeste 54 Oeste 1.4 928.6 1.8 83
2020-01-18 20:00:00 5.9 13 Oeste 56 Oeste 2.4 928.3 1.4 83
2020-01-18 19:00:00 10.2 14 Sudoeste 43 Sudoeste 0 926.7 -0.9 69
2020-01-18 18:00:00 10.8 21 Sudoeste 44 Sudoeste 0 926.8 -2.3 69
2020-01-18 17:00:00 10.6 14 Sudoeste 36 Sudoeste 0 926.9 -4 72
2020-01-18 16:00:00 9.8 16 Sudoeste 24 Sudoeste 0 927.6 -4.9 80
2020-01-18 15:00:00 6.9 3 Este 16 Este 0.2 929.1 -4.9 87
2020-01-18 14:00:00 5.9 8 Este 17 Este 0.2 930.9 -3.7 85
2020-01-18 13:00:00 5.5 8 Sudeste 14 Sudeste 0 932.5 -2.5 79
2020-01-18 12:00:00 5.1 8 Este 19 Sudeste 0 934 -1.5 73
2020-01-18 11:00:00 4 8 Este 17 Este 0 934.6 -1.4 75
2020-01-18 10:00:00 2.7 5 Este 12 Este 0 935 -1.4 78
2020-01-18 09:00:00 1.5 5 Sudeste 12 Este 0 935.5 -1 81
2020-01-18 08:00:00 1.4 7 Este 12 Sudeste 0 936 -1.4 82
2020-01-18 07:00:00 1.2 3 Este 9 Este 0 936.4 -1.3 83
2020-01-18 06:00:00 0.3 5 Este 12 Sudeste 0 936.5 -1.6 84
2020-01-18 05:00:00 0.2 2 Este 13 Sudeste 0 937.4 -0.2 83
2020-01-18 04:00:00 0.1 4 Sudeste 10 Este 0 937.7 -0.8 84
2020-01-18 03:00:00 -0.7 0 Calma 8 Sudoeste 0 938.1 -0.7 84
2020-01-18 02:00:00 -0.3 4 Sudoeste 12 Este 0 937.6 -1.5 83
2020-01-18 01:00:00 -0.5 3 Este 10 Sudeste 0 938.5 -1 83
2020-01-18 00:00:00 -0.5 4 Este 9 Este 0 938.8 -0.8 84
2020-01-17 23:00:00 -0.3 0 Calma 9 Este 0 939.1 -0.3 81
2020-01-17 22:00:00 0.7 3 Este 7 Este 0 939.5 0.4 79
2020-01-17 21:00:00 1.9 3 Este 6 Este 0 939.6 1 76
2020-01-17 20:00:00 3.5 2 Sudoeste 9 Sudoeste 0 939.4 1 71
2020-01-17 19:00:00 5.1 2 Sur 8 Noroeste 0 939.1 1.3 64
2020-01-17 18:00:00 7.3 4 Oeste 20 Oeste 0 938.6 1 58
2020-01-17 17:00:00 8.4 9 Oeste 28 Oeste 0 938.4 0.8 53
2020-01-17 16:00:00 8.6 10 Oeste 31 Oeste 0 937.8 0.2 54
2020-01-17 15:00:00 8.8 11 Oeste 40 Oeste 0 937.6 0 53
2020-01-17 14:00:00 10.1 16 Oeste 47 Oeste 0 937.6 0.2 50
2020-01-17 13:00:00 10 13 Oeste 44 Oeste 0 937.6 1.3 58
2020-01-17 12:00:00 8.1 18 Oeste 41 Oeste 0 937.6 1.8 67
2020-01-17 11:00:00 6.9 13 Oeste 28 Oeste 0 937.4 2.2 77
2020-01-17 10:00:00 6.2 14 Sudoeste 29 Oeste 0 936.3 2 79
2020-01-17 09:00:00 5.7 15 Sudoeste 30 Sudoeste 0 935.8 1.9 82
2020-01-17 08:00:00 5.7 14 Sudoeste 37 Sudoeste 0 935.2 1.7 82
2020-01-17 07:00:00 6 18 Sudoeste 39 Sudoeste 0 934.3 0.6 78
2020-01-17 06:00:00 6.1 15 Sudoeste 31 Sudoeste 0 933.9 0.5 78
2020-01-17 05:00:00 6.1 13 Sudoeste 25 Sudoeste 0 933.5 0.2 77
2020-01-17 04:00:00 6.1 10 Sudoeste 17 Sudoeste 0.2 933.7 0.5 77
2020-01-17 03:00:00 6.7 8 Sudoeste 17 Sudoeste 0 933.4 0 76
2020-01-17 02:00:00 7.3 9 Sudoeste 18 Sudoeste 0 933.3 0.5 72
2020-01-17 01:00:00 7.6 5 Sudoeste 26 Sudoeste 0 933.2 0.7 67
2020-01-17 00:00:00 6.9 7 Sudoeste 14 Sudoeste 0 933.4 1.3 70
2020-01-16 23:00:00 7.3 5 Oeste 31 Sudoeste 0 932.8 1 69
2020-01-16 22:00:00 9.1 12 Sudoeste 40 Sudoeste 0 932.5 0.9 61
2020-01-16 21:00:00 9 11 Sudoeste 23 Sudoeste 0 932.1 1.1 51
2020-01-16 20:00:00 9 8 Sudoeste 17 Sudoeste 0 931.8 0.9 49
2020-01-16 19:00:00 9.5 10 Sudoeste 36 Sudoeste 0 931.6 0.6 47
2020-01-16 18:00:00 10.9 18 Sudoeste 36 Sudoeste 0 931 -0.1 42
2020-01-16 17:00:00 12.8 19 Sudoeste 37 Sudoeste 0 930.9 -1.1 39
2020-01-16 16:00:00 13.5 19 Sudoeste 45 Sudoeste 0 931 -2.3 41
2020-01-16 15:00:00 14.2 20 Sudoeste 42 Sudoeste 0 931.1 -3.1 41
2020-01-16 14:00:00 13.1 18 Sudoeste 38 Sudoeste 0 932 -2.2 52
2020-01-16 13:00:00 9.3 6 Este 12 Nordeste 0 933.3 -0.9 68
2020-01-16 12:00:00 7 6 Este 15 Este 0 934.2 0.2 75
2020-01-16 11:00:00 4.8 8 Este 16 Este 0 934.2 0.3 81
2020-01-16 10:00:00 3.3 6 Este 12 Nordeste 0 934.2 0.6 87
2020-01-16 09:00:00 1 6 Este 12 Este 0 934 0.7 87
2020-01-16 08:00:00 0.6 6 Sudeste 11 Este 0 933.9 0.5 86
2020-01-16 07:00:00 0.4 3 Este 6 Este 0 933.6 -0.2 85
2020-01-16 06:00:00 1.2 3 Sudeste 10 Este 0 933.3 -0.5 85
2020-01-16 05:00:00 1.9 7 Este 12 Este 0 933.4 -0.2 85
2020-01-16 04:00:00 2.5 6 Este 10 Sudeste 0 933.8 -0.3 86
2020-01-16 03:00:00 2.6 5 Este 8 Este 0 933.8 -0.6 85
2020-01-16 02:00:00 3.9 5 Este 12 Sudeste 0 933.6 -0.4 85
2020-01-16 01:00:00 4.4 5 Este 10 Sudeste 0 934.1 0.1 86
2020-01-16 00:00:00 4.2 2 Sudeste 6 Este 0 934.4 0.5 83
2020-01-15 23:00:00 6.1 4 Este 14 Este 0 934 0.5 83
2020-01-15 22:00:00 7 3 Sudeste 6 Sudeste 0 934 1.1 83
2020-01-15 21:00:00 7.3 2 Este 8 Este 0 933.9 1.6 81
2020-01-15 20:00:00 7.5 3 Nordeste 6 Este 0 933.5 1.8 79
2020-01-15 19:00:00 8.3 0 Calma 10 Oeste 0 932.9 1.7 73
2020-01-15 18:00:00 9.7 6 Oeste 26 Sudoeste 0 932.3 1.3 69
2020-01-15 17:00:00 10.1 14 Sudoeste 34 Sudoeste 0 931.7 0.3 66
2020-01-15 16:00:00 10.1 12 Sudoeste 27 Sudoeste 0 931.2 -0.2 63
2020-01-15 15:00:00 9.6 14 Sudoeste 31 Sudoeste 0 931 -0.6 64
2020-01-15 14:00:00 9.3 14 Sudoeste 32 Sudoeste 0 931.4 0.7 65
2020-01-15 13:00:00 8.8 6 Sudoeste 14 Sudoeste 0 931.4 1.5 66
2020-01-15 12:00:00 6.5 3 Nordeste 9 Nordeste 0 931.6 2.4 71
2020-01-15 11:00:00 4.2 5 Este 17 Sudeste 0 930.7 2 73
2020-01-15 10:00:00 3.4 7 Este 14 Este 0 929.9 1.5 74
2020-01-15 09:00:00 1.9 8 Este 15 Este 0 929.2 1 77
2020-01-15 08:00:00 1.2 9 Sudeste 18 Sudeste 0 928.7 0.6 79
2020-01-15 07:00:00 0.3 6 Este 15 Sudeste 0 928.4 -0.2 80
2020-01-15 06:00:00 0.8 8 Sudeste 14 Este 0 928.2 -0.5 80
2020-01-15 05:00:00 0.8 6 Este 14 Sudeste 0 928.1 -0.4 80
2020-01-15 04:00:00 1.3 5 Sudeste 13 Sudeste 0 928.6 0 76
2020-01-15 03:00:00 1.8 4 Sudeste 15 Sudeste 0 928.7 0 76
2020-01-15 02:00:00 2 5 Sudeste 12 Este 0 928.5 -0.1 79
2020-01-15 01:00:00 1.7 6 Este 11 Este 0 928.6 -0.4 79
2020-01-15 00:00:00 1.9 5 Sudeste 13 Sudeste 0 928.7 -0.1 77
2020-01-14 23:00:00 2.1 7 Este 12 Este 0 928.6 -0.1 79
2020-01-14 22:00:00 1.7 4 Este 8 Oeste 0 929 0.5 80
2020-01-14 21:00:00 1.4 3 Sudeste 5 Nordeste 0 928.8 0.5 75
2020-01-14 20:00:00 4.3 0 Calma 13 Sur 0 928.7 0.4 68
2020-01-14 19:00:00 6.8 5 Sur 13 Sudoeste 0 928.5 -0.2 63
2020-01-14 18:00:00 7.6 7 Sudoeste 20 Sudoeste 0 928.3 -0.5 60
2020-01-14 17:00:00 9 16 Sudoeste 32 Sudoeste 0 928.3 -1.3 53
2020-01-14 16:00:00 8.8 16 Sudoeste 31 Sudoeste 0 928.7 -1.7 53
2020-01-14 15:00:00 8.7 13 Sudoeste 28 Sudoeste 0 928.8 -2.2 53
2020-01-14 14:00:00 8.1 12 Sudoeste 27 Sudoeste 0 929.6 -1.4 56
2020-01-14 13:00:00 6.6 9 Sudoeste 20 Sudoeste 0 930.4 -0.4 61
2020-01-14 12:00:00 5.2 12 Sudoeste 23 Sudoeste 0 931 0.5 66
2020-01-14 11:00:00 1.9 5 Oeste 16 Sudoeste 0 931 0.6 84
2020-01-14 10:00:00 -2.4 2 Este 6 Este 0 930.8 0.8 85
2020-01-14 09:00:00 -3.2 2 Este 6 Sudeste 0 930.5 0.3 85
2020-01-14 08:00:00 -2.9 3 Este 8 Norte 0 930.4 0 84
2020-01-14 07:00:00 -2.1 3 Este 9 Este 0 930 -0.7 83
2020-01-14 06:00:00 -2.1 5 Sudeste 12 Este 0 930.2 -0.6 83
2020-01-14 05:00:00 -2.2 4 Este 9 Este 0 930.4 -0.2 83
2020-01-14 04:00:00 -2.8 5 Este 11 Este 0 930.7 -0.5 84
2020-01-14 03:00:00 -2.7 3 Nordeste 8 Este 0 930.8 -0.4 85
2020-01-14 02:00:00 -3 3 Sudoeste 8 Sudoeste 0 930.6 -0.5 86
2020-01-14 01:00:00 -3.1 0 Calma 8 Norte 0 931.2 0.4 85
2020-01-14 00:00:00 -3.4 3 Este 6 Este 0 931.2 0.7 85
2020-01-13 23:00:00 -3.6 2 Este 6 Oeste 0 931.1 0.7 84
2020-01-13 22:00:00 -3.2 0 Calma 6 Sudoeste 0 930.8 0.3 81
2020-01-13 21:00:00 -1.9 2 Nordeste 12 Sudeste 0 930.5 0 81
2020-01-13 20:00:00 -0.7 3 Este 7 Este 0 930.4 -0.7 76
2020-01-13 19:00:00 1.6 2 Este 4 Sudeste 0 930.5 -0.9 71
2020-01-13 18:00:00 5.3 2 Sudoeste 12 Oeste 0 930.5 -1.1 62
2020-01-13 17:00:00 7 5 Oeste 26 Oeste 0 931.1 -1.6 56
2020-01-13 16:00:00 7.2 11 Sudoeste 22 Sudoeste 0 931.4 -1.7 57
2020-01-13 15:00:00 4.9 2 Oeste 14 Oeste 0 931.6 -2.5 67
2020-01-13 14:00:00 3.9 5 Oeste 12 Oeste 0 932.7 -1.2 68
2020-01-13 13:00:00 1.7 3 Nordeste 8 Este 0 933.1 -0.5 76
2020-01-13 12:00:00 -1 4 Sudoeste 12 Noroeste 0 934.1 0.5 84
2020-01-13 11:00:00 -2.8 2 Nordeste 6 Noroeste 0 933.9 0.4 86
2020-01-13 10:00:00 -5.2 2 Noroeste 4 Noroeste 0 933.6 -0.1 86
2020-01-13 09:00:00 -6.2 2 Sudoeste 7 Noroeste 0 933.6 -0.4 87
2020-01-13 08:00:00 -5.6 2 Sudoeste 6 Sudoeste 0 933.5 -1.3 87
2020-01-13 07:00:00 -5.1 2 Este 4 Sudeste 0 933.7 -1.5 88
2020-01-13 06:00:00 -5 2 Este 5 Sudoeste 0 934 -1.6 87
2020-01-13 05:00:00 -4.5 3 Sudoeste 5 Sudoeste 0 934.8 -1.2 87
2020-01-13 04:00:00 -4.2 0 Calma 4 Sur 0 935.2 -1.5 87
2020-01-13 03:00:00 -4 0 Calma 4 Sudoeste 0 935.6 -1.5 87
2020-01-13 02:00:00 -3.6 2 Sudoeste 5 Sudoeste 0 936 -1.3 87
2020-01-13 01:00:00 -3.1 0 Calma 4 Este 0 936.7 -0.6 87
2020-01-13 00:00:00 -2.8 0 Calma 5 Este 0 937.1 -0.6 86
2020-01-12 23:00:00 -3 3 Sudeste 4 Sudeste 0 937.3 -0.5 85
2020-01-12 22:00:00 -3.2 0 Calma 4 Nordeste 0 937.3 -0.2 84
2020-01-12 21:00:00 -2.5 0 Calma 3 Sudeste 0 937.7 0.4 82
2020-01-12 20:00:00 -1.2 0 Calma 4 Sudoeste 0 937.8 0.6 80
2020-01-12 19:00:00 0.9 0 Calma 5 Sudoeste 0 937.5 0.1 75
2020-01-12 18:00:00 4.1 3 Noroeste 6 Noroeste 0 937.3 -0.6 72
2020-01-12 17:00:00 4.3 3 Noroeste 9 Oeste 0 937.2 -1.5 69
2020-01-12 16:00:00 3.3 3 Sudoeste 9 Oeste 0 937.4 -2.4 81
2020-01-12 15:00:00 1.1 3 Oeste 9 Noroeste 0 937.9 -2.5 88
2020-01-12 14:00:00 -0.4 3 Sudoeste 8 Sudoeste 0 938.7 -1.7 88
2020-01-12 13:00:00 -1.8 0 Calma 7 Sudoeste 0 939.8 0 88
2020-01-12 12:00:00 -3.2 2 Sudoeste 6 Este 0 940.4 1 87
2020-01-12 11:00:00 -4.6 3 Este 8 Este 0 940.4 0.8 87
2020-01-12 10:00:00 -5.4 4 Este 8 Este 0 939.8 0.4 87
2020-01-12 09:00:00 -5.7 2 Sudeste 7 Sudeste 0 939.4 0 86
2020-01-12 08:00:00 -5.5 2 Sudeste 9 Sudeste 0 939.6 0.3 87
2020-01-12 07:00:00 -4.8 3 Sudeste 10 Nordeste 0 939.4 -0.3 87
2020-01-12 06:00:00 -4.8 3 Nordeste 8 Este 0 939.4 0 87
2020-01-12 05:00:00 -4.7 4 Sudeste 11 Sudeste 0 939.3 -0.1 87
2020-01-12 04:00:00 -3.5 2 Sur 6 Sudeste 0 939.7 0.3 88
2020-01-12 03:00:00 -3.5 2 Este 9 Sudeste 0 939.4 0 88
2020-01-12 02:00:00 -3.3 2 Nordeste 8 Este 0 939.4 0 88
2020-01-12 01:00:00 -2.8 2 Sudeste 8 Sudeste 0 939.4 -0.3 88
2020-01-12 00:00:00 -3 0 Calma 5 Sudoeste 0 939.4 -0.4 88
2020-01-11 23:00:00 -2.9 3 Sudeste 7 Sudeste 0 939.4 -0.1 88
2020-01-11 22:00:00 -2.3 0 Calma 6 Sudoeste 0 939.7 0.5 88
2020-01-11 21:00:00 -1.9 0 Calma 6 Sur 0 939.8 0.9 88
2020-01-11 20:00:00 -1.4 3 Oeste 8 Sudeste 0 939.5 0.8 87
2020-01-11 19:00:00 -1.3 0 Calma 7 Nordeste 0 939.2 0.3 87
2020-01-11 18:00:00 -0.9 3 Noroeste 10 Noroeste 0 938.9 -0.1 86
2020-01-11 17:00:00 -0.3 3 Oeste 12 Sudoeste 0 938.7 -0.8 86
2020-01-11 16:00:00 -0.1 3 Oeste 11 Norte 0 938.9 -1.5 87
2020-01-11 15:00:00 -0.6 3 Noroeste 10 Oeste 0 939 -2.2 86
2020-01-11 14:00:00 -0.9 0 Calma 7 Noroeste 0 939.5 -1.4 87
2020-01-11 13:00:00 -1.6 3 Sur 8 Sudoeste 0 940.4 0.1 87
2020-01-11 12:00:00 -2.1 4 Sudoeste 10 Sudoeste 0 941.2 1.2 87
2020-01-11 11:00:00 -2.5 2 Sur 5 Sudoeste 0 940.9 1 87
2020-01-11 10:00:00 -2.9 0 Calma 5 Sudoeste 0 940.3 0.8 87
2020-01-11 09:00:00 -3.9 2 Sur 8 Este 0 940 0.6 87
2020-01-11 08:00:00 -5 3 Sudeste 12 Este 0 939.9 0.3 86
2020-01-11 07:00:00 -5.4 4 Este 9 Este 0 939.5 -0.2 85
2020-01-11 06:00:00 -4.9 0 Calma 4 Este 0 939.4 -0.1 85
2020-01-11 05:00:00 -4.5 2 Sudeste 4 Este 0 939.6 0.2 85
2020-01-11 04:00:00 -4.1 0 Calma 4 Sudoeste 0 939.7 0.3 85
2020-01-11 03:00:00 -3.8 0 Calma 5 Sudoeste 0 939.5 -0.2 85
2020-01-11 02:00:00 -3.1 3 Sudoeste 7 Sudoeste 0 939.4 -0.2 85
2020-01-11 01:00:00 -2.6 4 Sudoeste 7 Sudoeste 0 939.4 0.2 85
2020-01-11 00:00:00 -2.2 0 Calma 5 Sudoeste 0 939.7 0.1 84
2020-01-10 23:00:00 -1.2 3 Sudoeste 8 Sudoeste 0 939.6 0.5 84
2020-01-10 22:00:00 -0.3 3 Noroeste 10 Sudoeste 0 939.2 0.5 82
2020-01-10 21:00:00 1.3 2 Sudoeste 11 Norte 0 939.6 1.4 78
2020-01-10 20:00:00 2.9 0 Calma 16 Norte 0 939.1 1.4 74
2020-01-10 19:00:00 4.4 8 Norte 16 Noroeste 0 938.7 1.3 69
2020-01-10 18:00:00 5.7 6 Norte 30 Norte 0 938.2 1 64
2020-01-10 17:00:00 6.8 14 Norte 29 Nordeste 0 937.7 0.2 60
2020-01-10 16:00:00 7.4 15 Norte 32 Norte 0 937.4 -0.8 58
2020-01-10 15:00:00 7.6 12 Norte 36 Norte 0 937.2 -1.3 53
2020-01-10 14:00:00 7.1 15 Norte 32 Nordeste 0 937.5 -0.5 57
2020-01-10 13:00:00 6.1 15 Norte 33 Norte 0 938.2 0.8 59
2020-01-10 12:00:00 5.6 14 Norte 28 Norte 0 938.5 1.5 62
2020-01-10 11:00:00 2.7 3 Noroeste 9 Norte 0 938 1 75
2020-01-10 10:00:00 -0.1 2 Noroeste 6 Noroeste 0 937.4 1.3 83
2020-01-10 09:00:00 0.1 2 Sudoeste 5 Oeste 0 937 1.7 82
2020-01-10 08:00:00 0.9 2 Noroeste 10 Oeste 0 937 1.8 82
2020-01-10 07:00:00 1 4 Noroeste 7 Noroeste 0 936.1 0.9 83
2020-01-10 06:00:00 1 4 Oeste 8 Oeste 0 935.3 0.8 82
2020-01-10 05:00:00 1.1 4 Sudoeste 7 Sudoeste 0 935.2 0.8 82
2020-01-10 04:00:00 0.5 0 Calma 5 Sudoeste 0 935.2 0.9 81
2020-01-10 03:00:00 1.4 3 Oeste 17 Oeste 0 934.5 0.1 77
2020-01-10 02:00:00 2.9 9 Oeste 20 Oeste 0 934.4 0.5 75
2020-01-10 01:00:00 4.5 10 Oeste 28 Oeste 0 934.3 1.2 73
2020-01-10 00:00:00 6.2 8 Oeste 23 Oeste 0 934.4 1.6 74
2020-01-09 23:00:00 7.7 7 Oeste 21 Oeste 0 933.9 0.9 81
2020-01-09 22:00:00 8 7 Oeste 23 Oeste 0 933.1 0.1 81
2020-01-09 21:00:00 8.8 9 Oeste 24 Oeste 0 932.8 -0.1 79
2020-01-09 20:00:00 8.8 10 Sudoeste 24 Sudoeste 0 933 0.6 79
2020-01-09 19:00:00 9 9 Sudoeste 22 Oeste 0 933 1 78
2020-01-09 18:00:00 10.1 8 Oeste 23 Oeste 0 932.9 0.2 73
2020-01-09 17:00:00 11.3 10 Oeste 27 Sudoeste 0 932.4 -1.6 65
2020-01-09 16:00:00 11 15 Sudoeste 35 Sudoeste 0 932 -2.6 65
2020-01-09 15:00:00 10.3 14 Oeste 32 Oeste 0 932.7 -2.8 67
2020-01-09 14:00:00 6.9 4 Noroeste 12 Oeste 0 934 -1.6 72
2020-01-09 13:00:00 6 4 Sudoeste 12 Oeste 0 934.6 -0.9 75
2020-01-09 12:00:00 3.5 0 Calma 7 Norte 0 935.5 0.2 83
2020-01-09 11:00:00 0.7 3 Nordeste 9 Sudeste 0 935.6 0.7 87
2020-01-09 10:00:00 -1.9 0 Calma 7 Sudeste 0 935.5 0.5 87
2020-01-09 09:00:00 -2.9 0 Calma 4 Sudoeste 0 935.3 0 87
2020-01-09 08:00:00 -2.6 0 Calma 9 Este 0 934.9 -0.2 87
2020-01-09 07:00:00 -2.6 3 Sudeste 6 Este 0 935 -0.6 86
2020-01-09 06:00:00 -2.3 3 Sudoeste 6 Sudeste 0 935.3 -0.6 87
2020-01-09 05:00:00 -1.7 3 Este 12 Este 0 935.1 -1.2 87
2020-01-09 04:00:00 -1.8 4 Este 9 Sudeste 0 935.6 -0.9 87
2020-01-09 03:00:00 -1.7 4 Este 8 Sudeste 0 935.9 -0.8 87
2020-01-09 02:00:00 -1.8 3 Este 4 Este 0 936.3 -0.5 86
2020-01-09 01:00:00 -1.5 2 Sudoeste 6 Este 0 936.5 -0.2 85
2020-01-09 00:00:00 -0.8 3 Este 6 Este 0 936.7 0 85
2020-01-08 23:00:00 -0.1 4 Este 7 Este 0 936.8 0.1 85
2020-01-08 22:00:00 0.2 0 Calma 5 Este 0 936.7 0 82
2020-01-08 21:00:00 1.4 3 Este 5 Este 0 936.7 0.2 81
2020-01-08 20:00:00 2.9 0 Calma 4 Sudeste 0 936.7 0.3 77
2020-01-08 19:00:00 5.2 0 Calma 2 Sudoeste 0 936.7 0.3 75
2020-01-08 18:00:00 8.2 0 Calma 5 Oeste 0 936.5 -0.1 69
2020-01-08 17:00:00 9.4 2 Sudoeste 9 Sudoeste 0 936.4 -0.8 64
2020-01-08 16:00:00 8.9 3 Sudoeste 8 Sudoeste 0 936.4 -1.5 64
2020-01-08 15:00:00 7.9 3 Sudoeste 14 Oeste 0 936.6 -2.4 66
2020-01-08 14:00:00 6.1 5 Oeste 14 Oeste 0 937.2 -2.3 67
2020-01-08 13:00:00 3.8 5 Sudoeste 12 Oeste 0 937.9 -1.5 85
2020-01-08 12:00:00 1 0 Calma 9 Noroeste 0 939 -0.2 87
2020-01-08 11:00:00 -1.5 0 Calma 7 Este 0 939.5 0.6 88
2020-01-08 10:00:00 -3.4 3 Norte 6 Norte 0 939.4 0.9 88
2020-01-08 09:00:00 -4.1 0 Calma 3 Sur 0 939.2 0.3 88
2020-01-08 08:00:00 -4.2 0 Calma 4 Sudeste 0 938.9 0.1 88
2020-01-08 07:00:00 -4.2 0 Calma 5 Sudoeste 0 938.5 -0.7 88
2020-01-08 06:00:00 -3.8 0 Calma 3 Sudoeste 0 938.9 -0.4 88
2020-01-08 05:00:00 -3.7 0 Calma 4 Sudeste 0 938.8 -0.7 88
2020-01-08 04:00:00 -3.6 0 Calma 3 Sudeste 0 939.2 -0.7 88
2020-01-08 03:00:00 -3.4 2 Este 4 Sudeste 0 939.3 -0.7 88
2020-01-08 02:00:00 -3.3 3 Noroeste 5 Oeste 0 939.5 -0.6 88
2020-01-08 01:00:00 -3.1 4 Sudoeste 6 Sudoeste 0 939.9 -0.2 88
2020-01-08 00:00:00 -2.8 0 Calma 5 Sudoeste 0 940 0.3 88
2020-01-07 23:00:00 -2.1 0 Calma 7 Oeste 0 940.1 0.4 88
2020-01-07 22:00:00 -1.6 3 Sudoeste 7 Oeste 0 940.1 0.6 88
2020-01-07 21:00:00 -1.3 2 Norte 8 Sudoeste 0 939.7 0.4 87
2020-01-07 20:00:00 -1.4 2 Sudoeste 4 Sudoeste 0 939.7 0.4 86
2020-01-07 19:00:00 0.2 0 Calma 9 Sudoeste 0 939.5 0 85
2020-01-07 18:00:00 2.7 6 Sudoeste 9 Sudoeste 0 939.3 -0.5 86
2020-01-07 17:00:00 3.1 4 Sudoeste 8 Sudoeste 0 939.3 -1 88
2020-01-07 16:00:00 1.9 5 Sudoeste 12 Sudoeste 0 939.5 -1.8 88
2020-01-07 15:00:00 0.5 3 Oeste 12 Sudoeste 0 939.8 -2 88
2020-01-07 14:00:00 -0.3 3 Oeste 8 Noroeste 0 940.3 -1.1 88
2020-01-07 13:00:00 -1.6 3 Noroeste 8 Noroeste 0 941.3 -0.1 88
2020-01-07 12:00:00 -2.2 2 Noroeste 9 Nordeste 0 941.8 0.8 88
2020-01-07 11:00:00 -3.5 3 Este 6 Nordeste 0 941.4 0.8 88
2020-01-07 10:00:00 -3.6 2 Sudoeste 6 Sudoeste 0 941.4 1.2 88
2020-01-07 09:00:00 -3.7 3 Oeste 8 Sudoeste 0 941 0.9 88
2020-01-07 08:00:00 -3.5 0 Calma 5 Sur 0 940.6 0.4 88
2020-01-07 07:00:00 -3.5 3 Sudeste 8 Sudoeste 0 940.2 -0.1 88
2020-01-07 06:00:00 -2.8 4 Sudoeste 9 Oeste 0 940.1 0 88
2020-01-07 05:00:00 -2.7 0 Calma 6 Sur 0 940.2 -0.1 89
2020-01-07 04:00:00 -2.3 3 Sudeste 8 Este 0 940.3 0.1 89
2020-01-07 03:00:00 -2.7 4 Nordeste 7 Norte 0 940.1 0.3 89
2020-01-07 02:00:00 -1.9 3 Sur 7 Sur 0 940.3 0.4 88
2020-01-07 01:00:00 -1.7 2 Oeste 8 Noroeste 0 940.2 0.7 88
2020-01-07 00:00:00 -1.4 3 Sudoeste 10 Noroeste 0 939.8 1 88
2020-01-06 23:00:00 -1 5 Oeste 12 Oeste 0 939.9 1.1 88
2020-01-06 22:00:00 -1 4 Oeste 12 Oeste 0 939.5 1.4 87
2020-01-06 21:00:00 -1.9 0 Calma 5 Sudoeste 0 938.8 1.6 86
2020-01-06 20:00:00 -1 0 Calma 4 Sudoeste 0 938.8 1.9 84
2020-01-06 19:00:00 0.7 2 Sudoeste 5 Sudoeste 0 938.1 1.5 83
2020-01-06 18:00:00 3 0 Calma 7 Sudoeste 0 937.2 0.5 83
2020-01-06 17:00:00 3.8 3 Sudoeste 8 Sudoeste 0 936.9 -0.1 86
2020-01-06 16:00:00 2.9 2 Sudoeste 11 Oeste 0 936.6 -1.6 88
2020-01-06 15:00:00 1.4 4 Noroeste 11 Noroeste 0 936.7 -2.2 88
2020-01-06 14:00:00 0.3 2 Norte 6 Sudoeste 0 937 -1.4 89
2020-01-06 13:00:00 -0.8 4 Oeste 13 Oeste 0 938.2 0.4 89
2020-01-06 12:00:00 -1.5 2 Oeste 11 Noroeste 0 938.9 1.2 89
2020-01-06 11:00:00 -2.7 0 Calma 11 Sudeste 0 938.4 1 88
2020-01-06 10:00:00 -3.3 4 Este 11 Este 0 937.8 1.4 88